KSAN/SAN METAR and TAF weather

Enter ICAO airport designator
Station Type Date Time Source
KSAN METAR 2021/05/14 06:51 UTC NOAA

KSAN 140651Z VRB03KT 10SM OVC015 18/12 A3002 RMK AO2 SLP165 T01780122


Station Type Date Time Source
KSAN Decoded METAR 2021/05/14 06:51 UTC NOAA

SAN DIEGO INTERNATIONAL \LINDBERGH FLD, CA, United States (KSAN) 32-44N 117-11W 12M
May 14, 2021 - 02:51 AM EDT / 2021.05.14 0651 UTC
Wind: Variable at 3 MPH (3 KT):0
Visibility: 10 mile(s):0
Sky conditions: overcast
Temperature: 64.0 F (17.8 C)
Dew Point: 54.0 F (12.2 C)
Relative Humidity: 69%
Pressure (altimeter): 30.02 in. Hg (1016 hPa)
ob: KSAN 140651Z VRB03KT 10SM OVC015 18/12 A3002 RMK AO2 SLP165 T01780122
cycle: 7

Station Type Date Time Source
KSAN TAF 2021/05/14 06:24 UTC NOAA

TAF KSAN 140523Z 1406/1512 VRB04KT P6SM OVC015
FM141900 28010KT P6SM SCT020
FM150200 29008KT P6SM BKN018
FM150400 30005KT P6SM OVC018

Example: see airport list